createdAt,value
2024-04-18T00:00:54.445Z,20.65
2024-04-18T00:01:54.397Z,20.63
2024-04-18T00:02:54.370Z,20.65
2024-04-18T00:03:54.504Z,20.63
2024-04-18T00:04:54.461Z,20.66
2024-04-18T00:05:54.396Z,20.61
2024-04-18T00:06:54.457Z,20.63
2024-04-18T00:07:54.382Z,20.58
2024-04-18T00:08:54.359Z,20.66
2024-04-18T00:09:54.367Z,20.63
2024-04-18T00:10:54.415Z,20.61
2024-04-18T00:11:54.352Z,20.60
2024-04-18T00:12:54.347Z,20.58
2024-04-18T00:13:55.075Z,20.55
2024-04-18T00:14:54.344Z,20.55
2024-04-18T00:15:54.421Z,20.58
2024-04-18T00:16:54.325Z,20.56
2024-04-18T00:17:54.747Z,20.57
2024-04-18T00:18:54.384Z,20.60
2024-04-18T00:19:54.335Z,20.58
2024-04-18T00:20:54.332Z,20.65
2024-04-18T00:21:54.326Z,20.61
2024-04-18T00:22:54.336Z,20.57
2024-04-18T00:23:54.316Z,20.60
2024-04-18T00:24:54.413Z,20.58
2024-04-18T00:25:54.291Z,20.58
2024-04-18T00:26:54.282Z,20.55
2024-04-18T00:27:54.288Z,20.58
2024-04-18T00:28:54.284Z,20.58
2024-04-18T00:29:54.285Z,20.58
2024-04-18T00:30:54.389Z,20.60
2024-04-18T00:31:54.346Z,20.58
2024-04-18T00:32:54.367Z,20.55
2024-04-18T00:33:54.387Z,20.55
2024-04-18T00:34:54.328Z,20.54
2024-04-18T00:35:54.347Z,20.58
2024-04-18T00:36:54.341Z,20.49
2024-04-18T00:37:54.346Z,20.52
2024-04-18T00:38:54.479Z,20.55
2024-04-18T00:39:54.407Z,20.49
2024-04-18T00:40:54.374Z,20.54
2024-04-18T00:41:54.366Z,20.55
2024-04-18T00:42:54.377Z,20.55
2024-04-18T00:43:54.355Z,20.52
2024-04-18T00:44:54.347Z,20.65
2024-04-18T00:45:54.424Z,20.58
2024-04-18T00:46:54.352Z,20.55
2024-04-18T00:47:54.536Z,20.54
2024-04-18T00:48:54.461Z,20.57
2024-04-18T00:49:54.359Z,20.52
2024-04-18T00:50:54.377Z,20.52
2024-04-18T00:51:54.367Z,20.48
2024-04-18T00:52:54.383Z,20.49
2024-04-18T00:53:54.366Z,20.46
2024-04-18T00:54:54.471Z,20.52
2024-04-18T00:55:54.394Z,20.52
2024-04-18T00:56:54.396Z,20.57
2024-04-18T00:57:54.405Z,20.52
2024-04-18T00:58:54.427Z,20.52
2024-04-18T00:59:54.448Z,20.46
2024-04-18T01:00:54.567Z,20.48
2024-04-18T01:01:54.471Z,20.49
2024-04-18T01:02:54.462Z,20.55
2024-04-18T01:03:54.621Z,20.58
2024-04-18T01:04:54.508Z,20.49
2024-04-18T01:05:54.491Z,20.51
2024-04-18T01:06:54.508Z,20.48
2024-04-18T01:07:54.483Z,20.60
2024-04-18T01:08:54.484Z,20.52
2024-04-18T01:09:54.501Z,20.49
2024-04-18T01:10:54.485Z,20.54
2024-04-18T01:11:54.564Z,20.49
2024-04-18T01:12:54.514Z,20.44
2024-04-18T01:13:54.490Z,20.45
2024-04-18T01:14:54.499Z,20.38
2024-04-18T01:15:54.547Z,20.45
2024-04-18T01:16:54.513Z,20.46
2024-04-18T01:17:54.680Z,20.49
2024-04-18T01:18:54.544Z,20.46
2024-04-18T01:19:54.526Z,20.51
2024-04-18T01:20:54.541Z,20.48
2024-04-18T01:21:54.587Z,20.48
2024-04-18T01:22:54.546Z,20.51
2024-04-18T01:23:54.571Z,20.43
2024-04-18T01:24:54.553Z,20.43
2024-04-18T01:25:54.536Z,20.46
2024-04-18T01:26:54.550Z,20.44
2024-04-18T01:27:54.526Z,20.49
2024-04-18T01:28:54.522Z,20.41
2024-04-18T01:29:54.554Z,20.47
2024-04-18T01:30:54.570Z,20.41
2024-04-18T01:31:54.547Z,20.41
2024-04-18T01:32:54.609Z,20.43
2024-04-18T01:33:54.580Z,20.47
2024-04-18T01:34:54.524Z,20.47
2024-04-18T01:35:54.541Z,20.43
2024-04-18T01:36:54.595Z,20.41
2024-04-18T01:37:54.522Z,20.40
2024-04-18T01:38:54.553Z,20.37
2024-04-18T01:39:54.527Z,20.41
2024-04-18T01:40:54.476Z,20.34
2024-04-18T01:41:54.500Z,20.35
2024-04-18T01:42:54.494Z,20.37
2024-04-18T01:43:54.486Z,20.40
2024-04-18T01:44:54.501Z,20.42
2024-04-18T01:45:54.490Z,20.41
2024-04-18T01:46:54.471Z,20.32
2024-04-18T01:47:54.561Z,20.32
2024-04-18T01:48:54.499Z,20.37
2024-04-18T01:49:54.483Z,20.41
2024-04-18T01:50:54.482Z,20.43
2024-04-18T01:51:54.482Z,20.35
2024-04-18T01:52:54.443Z,20.38
2024-04-18T01:53:54.472Z,20.38
2024-04-18T01:54:54.448Z,20.34
2024-04-18T01:55:54.448Z,20.38
2024-04-18T01:56:54.414Z,20.41
2024-04-18T01:57:54.424Z,20.41
2024-04-18T01:58:54.419Z,20.52
2024-04-18T01:59:54.414Z,20.43
2024-04-18T02:00:54.456Z,20.38
2024-04-18T02:01:54.389Z,20.40
2024-04-18T02:02:54.432Z,20.35
2024-04-18T02:03:54.411Z,20.31
2024-04-18T02:04:54.391Z,20.31
2024-04-18T02:05:54.401Z,20.34
2024-04-18T02:06:54.422Z,20.38
2024-04-18T02:07:54.450Z,20.34
2024-04-18T02:08:54.427Z,20.41
2024-04-18T02:09:54.507Z,20.38
2024-04-18T02:10:54.498Z,20.32
2024-04-18T02:11:54.497Z,20.35
2024-04-18T02:12:54.517Z,20.41
2024-04-18T02:13:54.528Z,20.37
2024-04-18T02:14:54.512Z,20.31
2024-04-18T02:15:54.523Z,20.37
2024-04-18T02:16:54.546Z,20.34
2024-04-18T02:17:54.629Z,20.32
2024-04-18T02:18:54.677Z,20.28
2024-04-18T02:19:54.590Z,20.31
2024-04-18T02:20:54.613Z,20.34
2024-04-18T02:21:54.656Z,20.34
2024-04-18T02:22:54.628Z,20.32
2024-04-18T02:23:54.649Z,20.29
2024-04-18T02:24:54.624Z,20.32
2024-04-18T02:25:54.647Z,20.28
2024-04-18T02:26:54.643Z,20.26
2024-04-18T02:27:54.683Z,20.34
2024-04-18T02:28:54.604Z,20.29
2024-04-18T02:29:54.611Z,20.23
2024-04-18T02:30:54.675Z,20.23
2024-04-18T02:31:54.746Z,20.32
2024-04-18T02:32:54.639Z,20.25
2024-04-18T02:33:54.686Z,20.26
2024-04-18T02:34:54.603Z,20.29
2024-04-18T02:35:54.616Z,20.26
2024-04-18T02:36:54.660Z,20.26
2024-04-18T02:37:54.593Z,20.29
2024-04-18T02:38:54.640Z,20.25
2024-04-18T02:39:54.632Z,20.31
2024-04-18T02:40:54.642Z,20.29
2024-04-18T02:41:54.586Z,20.28
2024-04-18T02:42:54.604Z,20.26
2024-04-18T02:43:54.705Z,20.31
2024-04-18T02:44:54.583Z,20.27
2024-04-18T02:45:54.640Z,20.31
2024-04-18T02:46:54.603Z,20.25
2024-04-18T02:47:54.792Z,20.26
2024-04-18T02:48:54.670Z,20.22
2024-04-18T02:49:54.611Z,20.31
2024-04-18T02:50:54.646Z,20.26
2024-04-18T02:51:54.690Z,20.28
2024-04-18T02:52:54.656Z,20.25
2024-04-18T02:53:54.690Z,20.29
2024-04-18T02:54:54.719Z,20.25
2024-04-18T02:55:54.709Z,20.27
2024-04-18T02:56:54.680Z,20.22
2024-04-18T02:57:54.702Z,20.25
2024-04-18T02:58:54.688Z,20.19
2024-04-18T02:59:54.677Z,20.26
2024-04-18T03:00:54.718Z,20.25
2024-04-18T03:01:54.662Z,20.23
2024-04-18T03:02:54.786Z,20.23
2024-04-18T03:03:54.763Z,20.29
2024-04-18T03:04:54.656Z,20.26
2024-04-18T03:05:54.683Z,20.27
2024-04-18T03:06:54.647Z,20.18
2024-04-18T03:07:54.670Z,20.23
2024-04-18T03:08:54.649Z,20.21
2024-04-18T03:09:54.668Z,20.23
2024-04-18T03:10:54.657Z,20.24
2024-04-18T03:11:54.660Z,20.23
2024-04-18T03:12:54.668Z,20.20
2024-04-18T03:13:54.648Z,20.27
2024-04-18T03:14:54.644Z,20.20
2024-04-18T03:15:54.811Z,20.21
2024-04-18T03:16:54.635Z,20.31
2024-04-18T03:17:54.826Z,20.32
2024-04-18T03:18:54.695Z,20.26
2024-04-18T03:19:54.643Z,20.17
2024-04-18T03:20:54.644Z,20.11
2024-04-18T03:21:54.818Z,19.88
2024-04-18T03:22:54.676Z,19.64
2024-04-18T03:23:54.699Z,19.53
2024-04-18T03:24:54.752Z,19.47
2024-04-18T03:25:54.821Z,19.48
2024-04-18T03:26:54.816Z,19.49
2024-04-18T03:27:54.858Z,19.43
2024-04-18T03:28:54.824Z,19.49
2024-04-18T03:29:54.828Z,19.32
2024-04-18T03:30:54.851Z,19.36
2024-04-18T03:31:54.864Z,19.26
2024-04-18T03:32:54.910Z,19.38
2024-04-18T03:33:54.903Z,19.09
2024-04-18T03:34:54.856Z,19.13
2024-04-18T03:35:54.877Z,19.18
2024-04-18T03:36:54.923Z,19.21
2024-04-18T03:37:54.892Z,19.07
2024-04-18T03:38:54.947Z,19.04
2024-04-18T03:39:55.040Z,19.13
2024-04-18T03:40:55.048Z,19.08
2024-04-18T03:41:55.163Z,19.04
2024-04-18T03:42:55.212Z,18.99
2024-04-18T03:43:55.260Z,19.04
2024-04-18T03:44:55.435Z,18.99
2024-04-18T03:45:55.408Z,19.04
2024-04-18T03:46:55.436Z,19.04
2024-04-18T03:47:55.608Z,18.88
2024-04-18T03:48:55.619Z,18.96
2024-04-18T03:49:55.653Z,18.88
2024-04-18T03:50:55.735Z,18.96
2024-04-18T03:51:55.844Z,18.94
2024-04-18T03:52:55.852Z,18.98
2024-04-18T03:53:55.941Z,18.92
2024-04-18T03:55:01.948Z,18.88
2024-04-18T03:55:57.018Z,18.91
2024-04-18T03:56:56.031Z,18.93
2024-04-18T03:57:56.071Z,18.98
2024-04-18T03:58:56.078Z,18.94
2024-04-18T03:59:56.043Z,18.93
2024-04-18T04:00:56.152Z,18.96
2024-04-18T04:01:56.054Z,19.06
2024-04-18T04:02:56.059Z,18.97
2024-04-18T04:03:56.212Z,19.00
2024-04-18T04:04:56.205Z,18.98
2024-04-18T04:05:56.297Z,19.03
2024-04-18T04:06:56.389Z,18.93
2024-04-18T04:07:56.418Z,19.01
2024-04-18T04:08:56.416Z,19.04
2024-04-18T04:09:56.522Z,19.04
2024-04-18T04:10:56.467Z,19.05
2024-04-18T04:11:56.471Z,19.17
2024-04-18T04:12:56.523Z,19.08
2024-04-18T04:14:00.236Z,19.15
2024-04-18T04:14:56.494Z,19.09
2024-04-18T04:15:56.534Z,19.17
2024-04-18T04:16:56.506Z,19.13
2024-04-18T04:17:56.609Z,19.13
2024-04-18T04:18:56.819Z,19.16
2024-04-18T04:19:56.547Z,19.08
2024-04-18T04:20:56.562Z,19.16
2024-04-18T04:21:56.645Z,19.20
2024-04-18T04:22:56.600Z,19.13
2024-04-18T04:23:56.610Z,19.20
2024-04-18T04:24:57.565Z,19.21
2024-04-18T04:25:56.609Z,19.23
2024-04-18T04:26:56.614Z,19.26
2024-04-18T04:27:56.697Z,19.26
2024-04-18T04:28:56.630Z,19.23
2024-04-18T04:29:56.644Z,19.33
2024-04-18T04:30:56.774Z,19.27
2024-04-18T04:31:56.742Z,19.39
2024-04-18T04:32:56.696Z,19.35
2024-04-18T04:33:56.703Z,19.29
2024-04-18T04:34:56.702Z,19.34
2024-04-18T04:35:56.715Z,19.37
2024-04-18T04:37:04.075Z,19.42
2024-04-18T04:38:04.044Z,19.45
2024-04-18T04:39:04.034Z,19.44
2024-04-18T04:40:04.051Z,19.41
2024-04-18T04:41:04.040Z,19.45
2024-04-18T04:42:04.044Z,19.47
2024-04-18T04:43:04.142Z,19.47
2024-04-18T04:44:04.064Z,19.53
2024-04-18T04:45:04.094Z,19.50
2024-04-18T04:46:04.056Z,19.51
2024-04-18T04:47:04.055Z,19.58
2024-04-18T04:48:04.116Z,19.61
2024-04-18T04:49:04.113Z,19.55
2024-04-18T04:50:04.061Z,19.61
2024-04-18T04:51:04.070Z,19.62
2024-04-18T04:52:04.094Z,19.65
2024-04-18T04:53:04.070Z,19.61
2024-04-18T04:54:04.050Z,19.59
2024-04-18T04:55:04.079Z,19.58
2024-04-18T04:56:04.123Z,19.57
2024-04-18T04:57:04.083Z,19.65
2024-04-18T04:58:04.086Z,19.73
2024-04-18T04:59:04.095Z,19.62
2024-04-18T05:00:04.164Z,19.71
2024-04-18T05:01:04.219Z,19.74
2024-04-18T05:02:04.118Z,19.71
2024-04-18T05:03:04.131Z,19.72
2024-04-18T05:04:04.155Z,19.66
2024-04-18T05:05:04.133Z,19.74
2024-04-18T05:06:04.135Z,19.75
2024-04-18T05:07:04.146Z,19.73
2024-04-18T05:08:04.168Z,19.73
2024-04-18T05:09:04.146Z,19.75
2024-04-18T05:10:04.201Z,19.73
2024-04-18T05:11:04.251Z,19.73
2024-04-18T05:12:04.183Z,19.75
2024-04-18T05:13:04.185Z,19.78
2024-04-18T05:14:04.196Z,19.76
2024-04-18T05:15:04.187Z,19.82
2024-04-18T05:16:04.293Z,19.85
2024-04-18T05:17:04.210Z,19.79
2024-04-18T05:18:04.301Z,19.79
2024-04-18T05:19:04.266Z,19.81
2024-04-18T05:20:04.280Z,19.82
2024-04-18T05:21:04.347Z,19.82
2024-04-18T05:22:04.280Z,19.76
2024-04-18T05:23:04.287Z,19.88
2024-04-18T05:24:04.308Z,19.85
2024-04-18T05:25:04.310Z,19.85
2024-04-18T05:26:04.332Z,19.83
2024-04-18T05:27:04.341Z,19.83
2024-04-18T05:28:04.377Z,19.91
2024-04-18T05:29:04.338Z,19.91
2024-04-18T05:30:04.558Z,19.92
2024-04-18T05:31:04.687Z,19.95
2024-04-18T05:32:04.391Z,19.92
2024-04-18T05:33:04.439Z,19.90
2024-04-18T05:34:04.531Z,20.00
2024-04-18T05:35:04.367Z,19.93
2024-04-18T05:36:04.756Z,19.91
2024-04-18T05:37:04.354Z,19.89
2024-04-18T05:38:04.350Z,19.92
2024-04-18T05:39:04.342Z,19.95
2024-04-18T05:40:04.468Z,19.90
2024-04-18T05:41:04.353Z,19.92
2024-04-18T05:42:04.375Z,19.98
2024-04-18T05:43:04.344Z,19.93
2024-04-18T05:44:04.390Z,19.89
2024-04-18T05:45:04.414Z,19.96
2024-04-18T05:46:04.757Z,19.95
2024-04-18T05:47:05.187Z,19.89
2024-04-18T05:48:04.560Z,19.89
2024-04-18T05:49:04.562Z,19.90
2024-04-18T05:50:04.574Z,19.89
2024-04-18T05:51:04.615Z,19.86
2024-04-18T05:52:04.650Z,19.86
2024-04-18T05:53:04.804Z,19.89
2024-04-18T05:54:04.716Z,19.89
2024-04-18T05:55:04.739Z,19.93
2024-04-18T05:56:04.807Z,19.89
2024-04-18T05:57:04.803Z,19.89
2024-04-18T05:58:04.863Z,19.90
2024-04-18T05:59:04.866Z,19.89
2024-04-18T06:00:04.882Z,19.83
2024-04-18T06:01:05.130Z,19.81
2024-04-18T06:02:04.982Z,19.80
2024-04-18T06:03:05.025Z,19.81
2024-04-18T06:04:05.103Z,19.84
2024-04-18T06:05:05.198Z,19.89
2024-04-18T06:06:05.082Z,19.90
2024-04-18T06:07:05.108Z,19.86
2024-04-18T06:08:05.142Z,19.92
2024-04-18T06:09:05.217Z,19.85
2024-04-18T06:10:05.248Z,19.98
2024-04-18T06:11:05.312Z,19.93
2024-04-18T06:12:05.270Z,19.83
2024-04-18T06:13:05.288Z,19.87
2024-04-18T06:14:06.169Z,19.85
2024-04-18T06:15:05.364Z,19.86
2024-04-18T06:16:05.481Z,19.83
2024-04-18T06:17:05.467Z,19.85
2024-04-18T06:18:05.496Z,19.77
2024-04-18T06:19:05.503Z,19.85
2024-04-18T06:20:05.558Z,19.89
2024-04-18T06:21:05.551Z,19.92
2024-04-18T06:22:05.561Z,19.93
2024-04-18T06:23:05.753Z,19.90
2024-04-18T06:24:05.545Z,19.89
2024-04-18T06:25:05.646Z,19.92
2024-04-18T06:26:05.581Z,19.90
2024-04-18T06:27:05.554Z,19.95
2024-04-18T06:28:05.593Z,19.90
2024-04-18T06:29:05.567Z,19.91
2024-04-18T06:30:05.566Z,19.91
2024-04-18T06:31:06.918Z,19.94
2024-04-18T06:32:05.598Z,19.98
2024-04-18T06:33:05.681Z,19.96
2024-04-18T06:34:05.817Z,20.00
2024-04-18T06:35:05.597Z,20.01
2024-04-18T06:36:05.605Z,20.04
2024-04-18T06:37:08.014Z,20.11
2024-04-18T06:38:05.877Z,20.13
2024-04-18T06:39:05.926Z,20.11
2024-04-18T06:40:05.974Z,20.07
2024-04-18T06:41:05.983Z,20.18
2024-04-18T06:42:06.014Z,20.14
2024-04-18T06:43:06.011Z,20.20
2024-04-18T06:44:06.116Z,20.13
2024-04-18T06:45:06.090Z,20.19
2024-04-18T06:46:06.129Z,20.27
2024-04-18T06:47:06.203Z,20.21
2024-04-18T06:48:06.299Z,20.22
2024-04-18T06:49:06.238Z,20.19
2024-04-18T06:50:06.244Z,20.23
2024-04-18T06:51:06.311Z,20.21
2024-04-18T06:52:06.325Z,20.23
2024-04-18T06:53:06.389Z,20.18
2024-04-18T06:54:06.431Z,20.19
2024-04-18T06:55:06.475Z,20.21
2024-04-18T06:56:06.491Z,20.22
2024-04-18T06:57:06.495Z,20.21
2024-04-18T06:58:06.599Z,20.21
2024-04-18T06:59:06.496Z,20.21
2024-04-18T07:00:06.529Z,20.25
2024-04-18T07:01:06.730Z,20.22
2024-04-18T07:02:06.511Z,20.22
2024-04-18T07:03:06.556Z,20.30
2024-04-18T07:04:06.632Z,20.21
2024-04-18T07:05:06.557Z,20.23
2024-04-18T07:06:06.489Z,20.23
2024-04-18T07:07:06.509Z,20.23
2024-04-18T07:08:07.276Z,20.29
2024-04-18T07:09:06.516Z,20.27
2024-04-18T07:10:06.526Z,20.20
2024-04-18T07:11:06.526Z,20.22
2024-04-18T07:12:06.486Z,20.22
2024-04-18T07:13:06.573Z,20.17
2024-04-18T07:14:06.531Z,20.22
2024-04-18T07:15:06.464Z,20.21
2024-04-18T07:16:06.461Z,20.25
2024-04-18T07:17:06.743Z,20.29
2024-04-18T07:18:06.604Z,20.20
2024-04-18T07:19:06.495Z,20.23
2024-04-18T07:20:06.515Z,20.27
2024-04-18T07:21:06.543Z,20.22
2024-04-18T07:22:06.620Z,20.22
2024-04-18T07:23:06.549Z,20.16
2024-04-18T07:24:06.521Z,20.18
2024-04-18T07:25:06.583Z,20.15
2024-04-18T07:26:06.507Z,20.14
2024-04-18T07:27:06.612Z,20.11
2024-04-18T07:28:06.499Z,20.08
2024-04-18T07:29:06.490Z,20.04
2024-04-18T07:30:06.520Z,20.06
2024-04-18T07:31:06.482Z,19.98
2024-04-18T07:32:06.470Z,20.00
2024-04-18T07:33:06.500Z,20.01
2024-04-18T07:34:06.479Z,19.94
2024-04-18T07:35:06.561Z,19.92
2024-04-18T07:36:06.454Z,19.92
2024-04-18T07:37:06.534Z,19.94
2024-04-18T07:38:06.466Z,19.93
2024-04-18T07:39:06.481Z,19.93
2024-04-18T07:40:06.530Z,19.96
2024-04-18T07:41:06.534Z,19.93
2024-04-18T07:42:06.542Z,19.92
2024-04-18T07:43:06.529Z,19.95
2024-04-18T07:44:06.524Z,19.87
2024-04-18T07:45:06.519Z,19.92
2024-04-18T07:46:06.570Z,19.86
2024-04-18T07:47:06.636Z,19.91
2024-04-18T07:48:06.721Z,19.85
2024-04-18T07:49:06.538Z,19.86
2024-04-18T07:50:06.499Z,19.89
2024-04-18T07:51:06.517Z,19.88
2024-04-18T07:52:12.499Z,19.91
2024-04-18T07:53:10.003Z,19.91
2024-04-18T07:54:06.555Z,19.91
2024-04-18T07:55:06.534Z,19.95
2024-04-18T07:56:06.930Z,19.94
2024-04-18T07:57:06.958Z,19.95
2024-04-18T07:58:07.541Z,20.04
2024-04-18T07:59:07.058Z,20.02
2024-04-18T08:00:07.319Z,19.99
2024-04-18T08:01:07.701Z,20.04
2024-04-18T08:02:08.561Z,20.04
2024-04-18T08:03:08.004Z,20.06
2024-04-18T08:04:27.110Z,20.04
2024-04-18T08:05:09.982Z,20.10
2024-04-18T08:06:09.325Z,20.05
2024-04-18T08:07:09.522Z,20.07
2024-04-18T08:08:10.470Z,20.08
2024-04-18T08:09:09.799Z,20.06
2024-04-18T08:10:10.541Z,20.08
2024-04-18T08:11:25.651Z,20.08
2024-04-18T08:13:10.407Z,20.08
2024-04-18T08:14:10.731Z,20.06
2024-04-18T08:15:11.177Z,20.02
2024-04-18T08:16:07.332Z,19.95
2024-04-18T08:17:06.493Z,19.93
2024-04-18T08:18:06.330Z,19.84
2024-04-18T08:19:06.315Z,19.84
2024-04-18T08:20:06.347Z,19.83
2024-04-18T08:21:06.377Z,19.77
2024-04-18T08:22:06.339Z,19.73
2024-04-18T08:23:06.609Z,19.74
2024-04-18T08:24:06.331Z,19.74
2024-04-18T08:25:07.223Z,19.73
2024-04-18T08:26:06.311Z,19.64
2024-04-18T08:27:06.414Z,19.61
2024-04-18T08:28:06.328Z,19.55
2024-04-18T08:29:06.336Z,19.63
2024-04-18T08:30:06.359Z,19.58
2024-04-18T08:31:06.335Z,19.61
2024-04-18T08:32:06.434Z,19.53
2024-04-18T08:33:06.418Z,19.49
2024-04-18T08:34:11.761Z,19.53
2024-04-18T08:35:07.330Z,19.51
2024-04-18T08:36:06.378Z,19.45
2024-04-18T08:37:07.144Z,19.37
2024-04-18T08:38:06.334Z,19.28
2024-04-18T08:39:06.393Z,19.34
2024-04-18T08:40:06.307Z,19.39
2024-04-18T08:41:07.374Z,19.39
2024-04-18T08:42:06.395Z,19.31
2024-04-18T08:43:06.300Z,19.33
2024-04-18T08:44:06.343Z,19.31
2024-04-18T08:45:07.296Z,19.33
2024-04-18T08:46:07.700Z,19.28
2024-04-18T08:47:06.380Z,19.25
2024-04-18T08:48:06.517Z,19.28
2024-04-18T08:49:07.406Z,19.33
2024-04-18T08:50:06.351Z,19.31
2024-04-18T08:51:06.433Z,19.25
2024-04-18T08:52:06.775Z,19.25
2024-04-18T08:53:06.415Z,19.27
2024-04-18T08:54:06.648Z,19.20
2024-04-18T08:55:06.632Z,19.13
2024-04-18T08:56:06.603Z,19.13
2024-04-18T08:57:06.600Z,19.17
2024-04-18T08:58:06.635Z,19.10
2024-04-18T08:59:06.735Z,19.13
2024-04-18T09:00:06.740Z,19.14
2024-04-18T09:01:06.731Z,19.08
2024-04-18T09:02:06.742Z,19.05
2024-04-18T09:03:06.839Z,18.97
2024-04-18T09:04:06.874Z,19.02
2024-04-18T09:05:06.833Z,18.99
2024-04-18T09:06:06.922Z,19.07
2024-04-18T09:07:06.935Z,18.96
2024-04-18T09:08:07.022Z,18.94
2024-04-18T09:09:06.968Z,18.91
2024-04-18T09:10:06.963Z,18.90
2024-04-18T09:11:07.111Z,18.90
2024-04-18T09:12:07.685Z,18.79
2024-04-18T09:13:07.645Z,18.77
2024-04-18T09:14:07.089Z,18.79
2024-04-18T09:15:07.179Z,18.66
2024-04-18T09:16:07.168Z,18.64
2024-04-18T09:17:07.139Z,18.61
2024-04-18T09:18:07.348Z,18.57
2024-04-18T09:19:08.687Z,18.51
2024-04-18T09:20:07.178Z,18.57
2024-04-18T09:21:07.133Z,18.43
2024-04-18T09:22:07.107Z,18.48
2024-04-18T09:23:07.124Z,18.51
2024-04-18T09:24:07.909Z,18.48
2024-04-18T09:25:07.106Z,18.49
2024-04-18T09:26:07.139Z,18.46
2024-04-18T09:27:07.160Z,18.52
2024-04-18T09:28:07.113Z,18.54
2024-04-18T09:29:07.104Z,18.55
2024-04-18T09:30:07.103Z,18.60
2024-04-18T09:31:07.199Z,18.60
2024-04-18T09:32:07.130Z,18.57
2024-04-18T09:33:07.903Z,18.59
2024-04-18T09:34:07.994Z,18.65
2024-04-18T09:35:07.067Z,18.62
2024-04-18T09:36:07.115Z,18.60
2024-04-18T09:37:07.036Z,18.59
2024-04-18T09:38:10.212Z,18.56
2024-04-18T09:39:07.765Z,18.61
2024-04-18T09:40:07.112Z,18.59
2024-04-18T09:41:06.987Z,18.62
2024-04-18T09:42:07.288Z,18.68
2024-04-18T09:43:07.088Z,18.64
2024-04-18T09:44:06.944Z,18.56
2024-04-18T09:45:06.973Z,18.67
2024-04-18T09:46:06.916Z,18.59
2024-04-18T09:47:06.939Z,18.63
2024-04-18T09:48:07.075Z,18.69
2024-04-18T09:49:06.983Z,18.67
2024-04-18T09:50:06.890Z,18.66
2024-04-18T09:51:06.893Z,18.70
2024-04-18T09:52:06.854Z,18.64
2024-04-18T09:53:06.859Z,18.63
2024-04-18T09:54:06.860Z,18.60
2024-04-18T09:55:06.799Z,18.64
2024-04-18T09:56:06.802Z,18.66
2024-04-18T09:57:06.803Z,18.66
2024-04-18T09:58:06.759Z,18.72
2024-04-18T09:59:06.796Z,18.66
2024-04-18T10:00:06.860Z,18.72
2024-04-18T10:01:06.895Z,18.70
2024-04-18T10:02:07.671Z,18.64
2024-04-18T10:03:07.026Z,18.66
2024-04-18T10:04:07.122Z,18.76
2024-04-18T10:05:07.026Z,18.80
2024-04-18T10:06:07.111Z,18.77
2024-04-18T10:07:07.329Z,18.73
2024-04-18T10:08:07.120Z,18.70
2024-04-18T10:09:07.309Z,18.70
2024-04-18T10:10:07.221Z,18.77
2024-04-18T10:11:07.262Z,18.75
2024-04-18T10:12:07.319Z,18.78
2024-04-18T10:13:07.338Z,18.78
2024-04-18T10:14:07.395Z,18.71
2024-04-18T10:15:07.481Z,18.71
2024-04-18T10:16:07.472Z,18.76
2024-04-18T10:17:07.611Z,18.72
2024-04-18T10:18:07.686Z,18.82
2024-04-18T10:19:07.653Z,18.73
2024-04-18T10:20:07.672Z,18.73
2024-04-18T10:21:07.776Z,18.82
2024-04-18T10:22:17.604Z,18.80
2024-04-18T10:23:08.702Z,18.85
2024-04-18T10:24:07.661Z,18.85
2024-04-18T10:25:07.606Z,18.82
2024-04-18T10:26:07.593Z,18.79
2024-04-18T10:27:07.598Z,18.81
2024-04-18T10:28:07.559Z,18.84
2024-04-18T10:29:07.520Z,18.90
2024-04-18T10:30:07.547Z,18.86
2024-04-18T10:31:08.723Z,18.83
2024-04-18T10:32:07.487Z,18.78
2024-04-18T10:33:07.562Z,18.80
2024-04-18T10:34:07.428Z,18.78
2024-04-18T10:35:07.403Z,18.72
2024-04-18T10:36:07.407Z,18.77
2024-04-18T10:37:07.802Z,18.75
2024-04-18T10:38:07.410Z,18.82
2024-04-18T10:39:07.531Z,18.75
2024-04-18T10:40:07.447Z,17.69
2024-04-18T10:41:07.484Z,17.01
2024-04-18T10:42:07.612Z,16.70
2024-04-18T10:43:09.278Z,16.74
2024-04-18T10:44:07.607Z,16.80
2024-04-18T10:45:07.691Z,16.82
2024-04-18T10:46:07.739Z,16.96
2024-04-18T10:47:07.908Z,16.96
2024-04-18T10:48:07.980Z,16.86
2024-04-18T10:49:07.992Z,17.40
2024-04-18T10:50:08.784Z,17.47
2024-04-18T10:51:08.093Z,17.34
2024-04-18T10:52:08.088Z,17.68
2024-04-18T10:53:08.150Z,17.08
2024-04-18T10:54:08.174Z,17.00
2024-04-18T10:55:08.145Z,17.52
2024-04-18T10:56:08.336Z,17.33
2024-04-18T10:57:08.191Z,17.77
2024-04-18T10:58:08.305Z,17.76
2024-04-18T10:59:08.267Z,17.87
2024-04-18T11:00:08.396Z,17.85
2024-04-18T11:01:08.427Z,17.47
2024-04-18T11:02:08.504Z,17.38
2024-04-18T11:03:08.573Z,17.42
2024-04-18T11:04:08.459Z,17.50
2024-04-18T11:05:08.484Z,17.78
2024-04-18T11:06:08.512Z,17.72
2024-04-18T11:07:08.528Z,18.11
2024-04-18T11:08:08.512Z,18.05
2024-04-18T11:09:08.525Z,17.84
2024-04-18T11:10:08.539Z,17.72
2024-04-18T11:11:08.552Z,17.52
2024-04-18T11:12:08.659Z,17.37
2024-04-18T11:13:08.619Z,17.66
2024-04-18T11:14:10.218Z,17.59
2024-04-18T11:15:08.697Z,17.60
2024-04-18T11:16:08.688Z,17.53
2024-04-18T11:17:08.752Z,17.89
2024-04-18T11:18:08.899Z,17.88
2024-04-18T11:19:08.838Z,17.91
2024-04-18T11:20:08.824Z,17.78
2024-04-18T11:21:08.854Z,17.90
2024-04-18T11:22:09.039Z,17.83
2024-04-18T11:23:14.929Z,17.96
2024-04-18T11:24:10.004Z,17.96
2024-04-18T11:25:08.970Z,18.04
2024-04-18T11:26:09.162Z,18.17
2024-04-18T11:27:09.077Z,18.56
2024-04-18T11:28:09.035Z,18.65
2024-04-18T11:29:09.725Z,18.70
2024-04-18T11:30:09.122Z,18.68
2024-04-18T11:31:09.207Z,18.74
2024-04-18T11:32:09.154Z,18.72
2024-04-18T11:33:09.198Z,18.72
2024-04-18T11:34:09.131Z,18.68
2024-04-18T11:35:16.762Z,18.65
2024-04-18T11:36:10.168Z,18.60
2024-04-18T11:37:09.194Z,18.64
2024-04-18T11:38:09.168Z,18.54
2024-04-18T11:39:09.168Z,18.55
2024-04-18T11:40:09.137Z,18.52
2024-04-18T11:41:09.220Z,18.49
2024-04-18T11:42:09.272Z,18.42
2024-04-18T11:43:09.123Z,18.59
2024-04-18T11:44:09.112Z,18.64
2024-04-18T11:45:09.163Z,18.70
2024-04-18T11:46:09.088Z,18.66
2024-04-18T11:47:09.102Z,18.59
2024-04-18T11:48:09.269Z,18.60
2024-04-18T11:49:09.170Z,18.56
2024-04-18T11:50:09.121Z,18.47
2024-04-18T11:51:09.043Z,18.48
2024-04-18T11:52:09.018Z,18.51
2024-04-18T11:53:09.002Z,18.46
2024-04-18T11:54:09.053Z,18.39
2024-04-18T11:55:09.007Z,18.42
2024-04-18T11:56:08.955Z,18.39
2024-04-18T11:57:09.004Z,18.40
2024-04-18T11:58:08.962Z,18.38
2024-04-18T11:59:08.919Z,18.33
2024-04-18T12:00:08.935Z,18.34
2024-04-18T12:01:08.908Z,18.32
2024-04-18T12:02:08.908Z,18.34
2024-04-18T12:03:08.955Z,18.31
2024-04-18T12:04:09.096Z,18.30
2024-04-18T12:05:08.907Z,18.32
2024-04-18T12:06:08.952Z,18.28
2024-04-18T12:07:08.914Z,18.29
2024-04-18T12:08:09.039Z,18.29
2024-04-18T12:09:09.058Z,18.26
2024-04-18T12:10:09.073Z,18.25
2024-04-18T12:11:09.130Z,18.23
2024-04-18T12:12:09.207Z,18.22
2024-04-18T12:13:09.214Z,18.23
2024-04-18T12:14:09.856Z,18.23
2024-04-18T12:15:09.474Z,18.23
2024-04-18T12:16:09.476Z,18.21
2024-04-18T12:17:09.439Z,18.26
2024-04-18T12:18:09.507Z,18.22
2024-04-18T12:19:09.550Z,18.22
2024-04-18T12:20:09.584Z,18.21
2024-04-18T12:21:09.652Z,18.21
2024-04-18T12:22:09.698Z,18.15
2024-04-18T12:23:09.763Z,18.19
2024-04-18T12:24:09.835Z,18.15
2024-04-18T12:25:09.814Z,18.20
2024-04-18T12:26:09.864Z,18.23
2024-04-18T12:27:10.037Z,18.23
2024-04-18T12:28:09.950Z,18.14
2024-04-18T12:29:10.002Z,18.14
2024-04-18T12:30:10.031Z,18.17
2024-04-18T12:31:10.050Z,18.10
2024-04-18T12:32:10.127Z,18.11
2024-04-18T12:33:10.166Z,18.16
2024-04-18T12:34:10.156Z,18.08
2024-04-18T12:35:10.201Z,18.11
2024-04-18T12:36:10.257Z,18.13
2024-04-18T12:37:10.246Z,18.13
2024-04-18T12:38:10.272Z,18.10
2024-04-18T12:39:10.360Z,18.03
2024-04-18T12:40:10.370Z,18.10
2024-04-18T12:41:10.430Z,18.12
2024-04-18T12:42:10.437Z,18.12
2024-04-18T12:43:10.423Z,18.07
2024-04-18T12:44:10.456Z,18.06
2024-04-18T12:45:10.580Z,18.03
2024-04-18T12:46:17.495Z,18.01
2024-04-18T12:47:11.550Z,18.00
2024-04-18T12:48:10.593Z,18.03
2024-04-18T12:49:10.702Z,17.96
2024-04-18T12:50:10.485Z,17.99
2024-04-18T12:51:10.413Z,17.93
2024-04-18T12:52:10.397Z,17.90
2024-04-18T12:53:10.382Z,17.93
2024-04-18T12:54:10.499Z,17.96